createdAt,value
2023-01-10T00:01:41.027Z,98707.44
2023-01-10T00:04:09.600Z,98710.28
2023-01-10T00:06:37.208Z,98713.69
2023-01-10T00:09:04.701Z,98716.13
2023-01-10T00:11:50.385Z,98716.66
2023-01-10T00:14:18.925Z,98723.41
2023-01-10T00:16:46.391Z,98714.34
2023-01-10T00:19:13.879Z,98718.66
2023-01-10T00:21:41.244Z,98718.78
2023-01-10T00:24:20.796Z,98719.66
2023-01-10T00:26:53.098Z,98713.66
2023-01-10T00:29:28.833Z,98720.94
2023-01-10T00:31:56.758Z,98712.66
2023-01-10T00:34:31.470Z,98712.91
2023-01-10T00:36:59.816Z,98727.09
2023-01-10T00:39:28.217Z,98721.38
2023-01-10T00:42:14.268Z,98715.38
2023-01-10T00:44:47.867Z,98724.56
2023-01-10T00:47:15.148Z,98728.38
2023-01-10T00:49:42.812Z,98724.81
2023-01-10T00:52:10.107Z,98727.38
2023-01-10T00:54:38.561Z,98729.06
2023-01-10T00:57:08.154Z,98738.38
2023-01-10T00:59:38.628Z,98741.38
2023-01-10T01:02:06.185Z,98744.97
2023-01-10T01:04:34.749Z,98739.91
2023-01-10T01:07:02.668Z,98753.88
2023-01-10T01:09:56.103Z,98744.84
2023-01-10T01:12:23.642Z,98745.84
2023-01-10T01:14:51.088Z,98764.78
2023-01-10T01:17:20.011Z,98758.63
2023-01-10T01:19:47.591Z,98762.63
2023-01-10T01:22:17.084Z,98767.75
2023-01-10T01:24:44.525Z,98772.94
2023-01-10T01:27:12.043Z,98775.56
2023-01-10T01:29:43.250Z,98779.97
2023-01-10T01:32:11.075Z,98781.13
2023-01-10T01:34:38.438Z,98782.75
2023-01-10T01:37:06.002Z,98781.00
2023-01-10T01:39:34.329Z,98788.88
2023-01-10T01:42:02.577Z,98785.31
2023-01-10T01:44:39.659Z,98782.41
2023-01-10T01:47:14.782Z,98788.50
2023-01-10T01:49:45.712Z,98795.22
2023-01-10T01:52:26.966Z,98798.00
2023-01-10T01:54:58.975Z,98797.00
2023-01-10T01:57:29.299Z,98801.13
2023-01-10T01:59:58.116Z,98804.44
2023-01-10T02:02:27.840Z,98810.50
2023-01-10T02:05:08.823Z,98815.53
2023-01-10T02:07:39.214Z,98815.66
2023-01-10T02:10:13.904Z,98820.59
2023-01-10T02:12:43.140Z,98828.00
2023-01-10T02:15:17.973Z,98828.09
2023-01-10T02:17:50.663Z,98833.75
2023-01-10T02:20:20.514Z,98827.78
2023-01-10T02:23:14.048Z,98824.28
2023-01-10T02:25:54.004Z,98827.78
2023-01-10T02:28:40.819Z,98842.63
2023-01-10T02:31:30.063Z,98837.47
2023-01-10T02:34:13.503Z,98839.94
2023-01-10T02:36:59.045Z,98840.44
2023-01-10T02:39:53.512Z,98841.19
2023-01-10T02:42:30.891Z,98856.19
2023-01-10T02:45:05.217Z,98842.50
2023-01-10T02:47:38.180Z,98847.38
2023-01-10T02:50:29.153Z,98845.41
2023-01-10T02:53:04.158Z,98851.84
2023-01-10T02:56:01.626Z,98859.13
2023-01-10T02:58:58.529Z,98868.72
2023-01-10T03:01:58.412Z,98871.75
2023-01-10T03:04:32.228Z,98872.34
2023-01-10T03:07:05.359Z,98875.47
2023-01-10T03:09:56.006Z,98875.25
2023-01-10T03:12:33.705Z,98890.16
2023-01-10T03:15:03.461Z,98885.75
2023-01-10T03:17:38.572Z,98892.91
2023-01-10T03:20:07.573Z,98887.69
2023-01-10T03:22:40.316Z,98891.22
2023-01-10T03:25:10.738Z,98894.84
2023-01-10T03:28:00.375Z,98897.63
2023-01-10T03:30:44.801Z,98908.16
2023-01-10T03:33:16.769Z,98906.44
2023-01-10T03:35:51.297Z,98909.31
2023-01-10T03:38:44.535Z,98910.91
2023-01-10T03:41:33.730Z,98918.03
2023-01-10T03:44:46.169Z,98920.56
2023-01-10T03:47:23.081Z,98924.03
2023-01-10T03:49:55.296Z,98928.50
2023-01-10T03:52:24.296Z,98937.97
2023-01-10T03:54:52.356Z,98948.16
2023-01-10T03:57:22.506Z,98948.06
2023-01-10T03:59:54.591Z,98952.56
2023-01-10T04:02:21.687Z,98963.13
2023-01-10T04:04:49.143Z,98971.72
2023-01-10T04:07:17.658Z,98975.25
2023-01-10T04:09:51.202Z,98974.47
2023-01-10T04:12:18.608Z,98978.69
2023-01-10T04:14:47.338Z,98987.44
2023-01-10T04:17:17.665Z,98995.94
2023-01-10T04:19:45.496Z,98996.06
2023-01-10T04:22:13.267Z,99006.41
2023-01-10T04:24:40.879Z,99003.94
2023-01-10T04:27:08.060Z,99011.78
2023-01-10T04:29:36.471Z,99014.69
2023-01-10T04:32:04.006Z,99020.53
2023-01-10T04:34:39.489Z,99013.59
2023-01-10T04:37:06.631Z,99025.91
2023-01-10T04:39:34.034Z,99022.28
2023-01-10T04:42:01.528Z,99023.22
2023-01-10T04:44:34.498Z,99030.16
2023-01-10T04:47:03.386Z,99031.16
2023-01-10T04:49:32.516Z,99040.91
2023-01-10T04:52:00.099Z,99048.53
2023-01-10T04:54:28.499Z,99056.31
2023-01-10T04:56:55.969Z,99047.53
2023-01-10T04:59:23.340Z,99056.16
2023-01-10T05:01:50.517Z,99061.41
2023-01-10T05:04:20.790Z,99064.06
2023-01-10T05:06:49.631Z,99068.44
2023-01-10T05:09:16.945Z,99068.50
2023-01-10T05:11:45.359Z,99071.00
2023-01-10T05:14:12.857Z,99076.25
2023-01-10T05:16:46.879Z,99080.56
2023-01-10T05:19:15.290Z,99080.56
2023-01-10T05:21:43.781Z,99082.56
2023-01-10T05:24:11.234Z,99084.31
2023-01-10T05:26:38.816Z,99093.34
2023-01-10T05:29:07.267Z,99093.47
2023-01-10T05:31:34.811Z,99102.06
2023-01-10T05:34:02.143Z,99103.84
2023-01-10T05:36:30.619Z,99101.34
2023-01-10T05:38:58.574Z,99102.97
2023-01-10T05:41:25.976Z,99111.06
2023-01-10T05:43:53.601Z,99111.06
2023-01-10T05:46:21.928Z,99119.81
2023-01-10T05:48:49.377Z,99123.50
2023-01-10T05:51:18.016Z,99120.94
2023-01-10T05:53:45.395Z,99133.19
2023-01-10T05:56:12.747Z,99144.81
2023-01-10T05:58:40.474Z,99140.28
2023-01-10T06:01:07.903Z,99138.59
2023-01-10T06:03:35.137Z,99152.50
2023-01-10T06:06:05.443Z,99155.03
2023-01-10T06:08:32.880Z,99152.03
2023-01-10T06:11:00.036Z,99161.47
2023-01-10T06:13:27.570Z,99168.75
2023-01-10T06:15:55.183Z,99175.38
2023-01-10T06:18:23.587Z,99179.03
2023-01-10T06:20:51.030Z,99185.19
2023-01-10T06:23:18.485Z,99190.31
2023-01-10T06:25:47.064Z,99189.47
2023-01-10T06:28:16.345Z,99198.25
2023-01-10T06:30:43.898Z,99195.94
2023-01-10T06:33:13.426Z,99204.69
2023-01-10T06:35:41.101Z,99216.19
2023-01-10T06:38:08.307Z,99208.41
2023-01-10T06:40:35.771Z,99216.13
2023-01-10T06:43:03.199Z,99221.25
2023-01-10T06:45:30.844Z,99230.03
2023-01-10T06:47:58.290Z,99233.78
2023-01-10T06:50:28.542Z,99231.22
2023-01-10T06:53:01.215Z,99234.03
2023-01-10T06:55:29.464Z,99242.81
2023-01-10T06:58:02.705Z,99245.34
2023-01-10T07:00:32.112Z,99254.97
2023-01-10T07:03:01.053Z,99256.81
2023-01-10T07:05:30.919Z,99265.53
2023-01-10T07:07:59.086Z,99275.09
2023-01-10T07:10:26.218Z,99270.16
2023-01-10T07:12:56.687Z,99272.59
2023-01-10T07:15:24.421Z,99275.28
2023-01-10T07:17:51.749Z,99272.66
2023-01-10T07:20:19.661Z,99292.75
2023-01-10T07:22:55.148Z,99295.31
2023-01-10T07:25:25.428Z,99293.53
2023-01-10T07:27:58.509Z,99301.41
2023-01-10T07:30:26.448Z,99312.69
2023-01-10T07:32:55.672Z,99308.38
2023-01-10T07:35:23.479Z,99322.25
2023-01-10T07:37:50.762Z,99319.66
2023-01-10T07:40:18.494Z,99313.56
2023-01-10T07:42:45.699Z,99331.94
2023-01-10T07:45:13.226Z,99331.09
2023-01-10T07:47:41.686Z,99334.59
2023-01-10T07:50:10.396Z,99332.22
2023-01-10T07:52:38.791Z,99328.72
2023-01-10T07:55:07.315Z,99330.53
2023-01-10T07:57:41.676Z,99337.38
2023-01-10T08:00:18.562Z,99337.31
2023-01-10T08:02:46.415Z,99335.53
2023-01-10T08:05:14.724Z,99329.50
2023-01-10T08:07:42.311Z,99337.41
2023-01-10T08:10:11.147Z,99344.47
2023-01-10T08:12:38.747Z,99339.94
2023-01-10T08:15:06.548Z,99346.13
2023-01-10T08:17:35.574Z,99349.66
2023-01-10T08:20:03.619Z,99354.13
2023-01-10T08:22:32.166Z,99361.91
2023-01-10T08:24:59.568Z,99372.34
2023-01-10T08:27:26.634Z,99363.50
2023-01-10T08:29:53.998Z,99376.63
2023-01-10T08:32:21.131Z,99381.09
2023-01-10T08:34:49.472Z,99379.13
2023-01-10T08:37:16.944Z,99387.03
2023-01-10T08:39:44.344Z,99399.22
2023-01-10T08:42:11.782Z,99401.03
2023-01-10T08:44:39.283Z,99401.84
2023-01-10T08:47:06.654Z,99403.63
2023-01-10T08:49:33.743Z,99401.66
2023-01-10T08:52:02.771Z,99405.31
2023-01-10T08:54:29.977Z,99401.00
2023-01-10T08:56:57.498Z,99405.44
2023-01-10T08:59:24.649Z,99401.78
2023-01-10T09:01:51.880Z,99408.91
2023-01-10T09:04:19.540Z,99416.53
2023-01-10T09:06:46.959Z,99407.84
2023-01-10T09:09:14.317Z,99427.03
2023-01-10T09:11:41.997Z,99430.50
2023-01-10T09:14:11.295Z,99440.06
2023-01-10T09:16:38.710Z,99442.59
2023-01-10T09:19:05.790Z,99452.09
2023-01-10T09:21:33.143Z,99448.72
2023-01-10T09:24:00.256Z,99462.69
2023-01-10T09:26:27.499Z,99466.22
2023-01-10T09:29:01.399Z,99476.72
2023-01-10T09:31:30.735Z,99480.94
2023-01-10T09:34:00.206Z,99497.53
2023-01-10T09:36:27.565Z,99502.78
2023-01-10T09:38:54.618Z,99500.03
2023-01-10T09:41:57.578Z,99504.38
2023-01-10T09:44:40.380Z,99493.13
2023-01-10T09:47:24.814Z,99491.31
2023-01-10T09:50:11.585Z,99481.69
2023-01-10T09:52:54.232Z,99494.09
2023-01-10T09:55:32.214Z,99493.31
2023-01-10T09:58:10.662Z,99487.19
2023-01-10T10:01:07.071Z,99486.25
2023-01-10T10:03:41.035Z,99486.97
2023-01-10T10:06:12.931Z,99490.47
2023-01-10T10:08:45.908Z,99483.41
2023-01-10T10:11:34.806Z,99495.59
2023-01-10T10:14:32.064Z,99495.69
2023-01-10T10:17:03.139Z,99497.38
2023-01-10T10:19:53.135Z,99501.69
2023-01-10T10:22:33.468Z,99494.63
2023-01-10T10:25:20.119Z,99507.84
2023-01-10T10:28:31.943Z,99504.09
2023-01-10T10:31:49.282Z,99507.63
2023-01-10T10:34:36.657Z,99514.53
2023-01-10T10:37:13.388Z,99516.31
2023-01-10T10:39:47.803Z,99531.19
2023-01-10T10:42:17.804Z,99531.22
2023-01-10T10:44:55.880Z,99524.16
2023-01-10T10:47:27.858Z,99529.19
2023-01-10T10:50:33.895Z,99535.34
2023-01-10T10:53:05.816Z,99537.81
2023-01-10T10:55:37.019Z,99542.13
2023-01-10T10:58:07.661Z,99544.53
2023-01-10T11:00:35.251Z,99551.56
2023-01-10T11:03:14.135Z,99549.03
2023-01-10T11:05:44.839Z,99550.75
2023-01-10T11:08:19.345Z,99555.94
2023-01-10T11:10:59.639Z,99557.53
2023-01-10T11:13:49.744Z,99563.63
2023-01-10T11:16:29.645Z,99567.06
2023-01-10T11:19:18.556Z,99568.03
2023-01-10T11:21:51.067Z,99574.13
2023-01-10T11:24:26.356Z,99566.03
2023-01-10T11:26:53.690Z,99575.50
2023-01-10T11:29:39.086Z,99569.56
2023-01-10T11:32:15.625Z,99568.84
2023-01-10T11:34:50.789Z,99574.06
2023-01-10T11:37:22.074Z,99579.09
2023-01-10T11:39:49.631Z,99579.16
2023-01-10T11:42:34.669Z,99584.41
2023-01-10T11:45:20.737Z,99578.41
2023-01-10T11:48:18.398Z,99581.66
2023-01-10T11:50:50.754Z,99580.91
2023-01-10T11:53:39.755Z,99586.72
2023-01-10T11:56:11.142Z,99583.31
2023-01-10T11:58:40.402Z,99586.88
2023-01-10T12:01:25.023Z,99599.09
2023-01-10T12:03:53.625Z,99595.50
2023-01-10T12:06:23.359Z,99598.84
2023-01-10T12:08:51.299Z,99608.25
2023-01-10T12:11:27.659Z,99610.69
2023-01-10T12:13:58.225Z,99604.88
2023-01-10T12:16:31.295Z,99606.28
2023-01-10T12:19:01.305Z,99611.44
2023-01-10T12:21:35.150Z,99622.81
2023-01-10T12:24:12.660Z,99617.44
2023-01-10T12:26:42.933Z,99620.88
2023-01-10T12:29:16.687Z,99619.00
2023-01-10T12:31:44.130Z,99634.91
2023-01-10T12:34:21.414Z,99638.47
2023-01-10T12:37:07.785Z,99644.50
2023-01-10T12:39:41.615Z,99650.25
2023-01-10T12:43:01.195Z,99651.28
2023-01-10T12:45:35.625Z,99660.25
2023-01-10T12:48:24.707Z,99660.19
2023-01-10T12:51:02.985Z,99653.22
2023-01-10T12:53:39.372Z,99665.34
2023-01-10T12:56:16.507Z,99671.28
2023-01-10T12:58:54.461Z,99669.78
2023-01-10T13:01:31.720Z,99674.69
2023-01-10T13:04:05.942Z,99675.53
2023-01-10T13:06:37.872Z,99673.72
2023-01-10T13:09:11.862Z,99675.47
2023-01-10T13:12:11.247Z,99681.84
2023-01-10T13:15:38.736Z,99683.72
2023-01-10T13:18:30.679Z,99703.94
2023-01-10T13:21:28.262Z,99705.09
2023-01-10T13:24:01.619Z,99709.34
2023-01-10T13:26:54.963Z,99710.09
2023-01-10T13:29:25.505Z,99710.16
2023-01-10T13:31:57.770Z,99725.00
2023-01-10T13:34:43.198Z,99731.00
2023-01-10T13:37:22.783Z,99736.25
2023-01-10T13:40:01.175Z,99725.03
2023-01-10T13:42:54.732Z,99730.03
2023-01-10T13:45:27.768Z,99727.47
2023-01-10T13:47:55.875Z,99737.34
2023-01-10T13:50:23.318Z,99736.25
2023-01-10T13:52:55.627Z,99739.06
2023-01-10T13:55:36.911Z,99736.47
2023-01-10T13:58:14.880Z,99743.59
2023-01-10T14:01:11.022Z,99743.56
2023-01-10T14:03:59.792Z,99750.50
2023-01-10T14:06:29.835Z,99752.06
2023-01-10T14:08:58.963Z,99750.41
2023-01-10T14:11:50.103Z,99754.78
2023-01-10T14:14:30.303Z,99750.50
2023-01-10T14:17:28.824Z,99757.50
2023-01-10T14:20:20.619Z,99761.00
2023-01-10T14:23:09.924Z,99771.56
2023-01-10T14:25:39.862Z,99776.94
2023-01-10T14:28:36.462Z,99775.16
2023-01-10T14:31:23.685Z,99785.63
2023-01-10T14:33:53.602Z,99779.47
2023-01-10T14:36:22.906Z,99787.38
2023-01-10T14:38:53.754Z,99781.34
2023-01-10T14:41:44.823Z,99781.41
2023-01-10T14:44:46.240Z,99793.72
2023-01-10T14:47:35.244Z,99796.31
2023-01-10T14:50:06.249Z,99805.88
2023-01-10T14:52:42.657Z,99807.78
2023-01-10T14:55:21.785Z,99806.09
2023-01-10T14:57:58.016Z,99809.53
2023-01-10T15:00:31.801Z,99817.44
2023-01-10T15:03:03.520Z,99804.28
2023-01-10T15:05:44.857Z,99806.81
2023-01-10T15:08:24.586Z,99809.69
2023-01-10T15:10:57.299Z,99818.50
2023-01-10T15:13:28.631Z,99815.97
2023-01-10T15:15:57.098Z,99821.28
2023-01-10T15:18:40.862Z,99823.00
2023-01-10T15:21:12.671Z,99822.22
2023-01-10T15:23:44.341Z,99826.66
2023-01-10T15:26:34.560Z,99831.88
2023-01-10T15:29:22.536Z,99821.44
2023-01-10T15:31:53.753Z,99834.59
2023-01-10T15:34:24.100Z,99831.16
2023-01-10T15:36:56.361Z,99835.50
2023-01-10T15:39:33.032Z,99827.72
2023-01-10T15:42:04.141Z,99835.69
2023-01-10T15:44:39.846Z,99840.75
2023-01-10T15:47:50.077Z,99845.22
2023-01-10T15:50:33.131Z,99857.59
2023-01-10T15:53:04.968Z,99849.03
2023-01-10T15:55:50.960Z,99854.56
2023-01-10T15:58:35.374Z,99854.47
2023-01-10T16:01:05.067Z,99856.38
2023-01-10T16:03:44.309Z,99860.88
2023-01-10T16:06:29.401Z,99868.25
2023-01-10T16:09:01.706Z,99861.25
2023-01-10T16:11:57.661Z,99880.72
2023-01-10T16:14:25.070Z,99882.41
2023-01-10T16:16:52.582Z,99872.72
2023-01-10T16:19:26.138Z,99879.72
2023-01-10T16:21:58.316Z,99884.09
2023-01-10T16:24:35.128Z,99883.34
2023-01-10T16:27:06.688Z,99891.13
2023-01-10T16:29:34.936Z,99891.91
2023-01-10T16:32:02.375Z,99895.25
2023-01-10T16:34:31.167Z,99899.69
2023-01-10T16:36:58.339Z,99895.25
2023-01-10T16:39:27.782Z,99901.41
2023-01-10T16:42:14.522Z,99901.31
2023-01-10T16:44:41.982Z,99909.19
2023-01-10T16:47:15.796Z,99920.50
2023-01-10T16:49:43.202Z,99916.19
2023-01-10T16:52:14.914Z,99917.88
2023-01-10T16:54:42.333Z,99923.13
2023-01-10T16:57:12.494Z,99915.19
2023-01-10T16:59:39.734Z,99923.94
2023-01-10T17:02:18.160Z,99918.75
2023-01-10T17:04:45.836Z,99930.94
2023-01-10T17:07:13.408Z,99943.16
2023-01-10T17:09:46.566Z,99938.00
2023-01-10T17:12:19.855Z,99945.81
2023-01-10T17:14:48.579Z,99951.88
2023-01-10T17:17:18.214Z,99953.66
2023-01-10T17:19:47.900Z,99960.69
2023-01-10T17:22:16.021Z,99963.38
2023-01-10T17:24:44.475Z,99968.53
2023-01-10T17:27:12.271Z,99977.38
2023-01-10T17:29:40.164Z,99972.97
2023-01-10T17:32:08.747Z,99965.06
2023-01-10T17:34:37.806Z,99976.47
2023-01-10T17:37:06.087Z,99973.03
2023-01-10T17:39:33.364Z,99981.69
2023-01-10T17:42:01.256Z,99984.28
2023-01-10T17:44:28.736Z,99984.25
2023-01-10T17:46:57.401Z,99992.03
2023-01-10T17:49:26.117Z,99998.19
2023-01-10T17:51:55.479Z,99991.19
2023-01-10T17:54:23.987Z,99990.25
2023-01-10T17:56:51.299Z,99998.06
2023-01-10T17:59:18.740Z,100012.97
2023-01-10T18:01:46.310Z,100005.28
2023-01-10T18:04:13.755Z,100008.69
2023-01-10T18:06:42.272Z,100017.34
2023-01-10T18:09:11.460Z,100013.78
2023-01-10T18:11:39.259Z,100007.66
2023-01-10T18:14:27.169Z,100005.88
2023-01-10T18:16:55.681Z,100010.22
2023-01-10T18:19:23.267Z,100007.59
2023-01-10T18:21:50.707Z,100000.56
2023-01-10T18:24:18.448Z,100001.66
2023-01-10T18:26:47.042Z,100006.13
2023-01-10T18:29:15.510Z,100015.69
2023-01-10T18:31:44.926Z,100009.69
2023-01-10T18:34:12.252Z,100010.72
2023-01-10T18:36:40.385Z,100008.91
2023-01-10T18:39:09.184Z,100011.50
2023-01-10T18:41:37.995Z,100000.00
2023-01-10T18:44:05.356Z,99999.16
2023-01-10T18:46:34.252Z,100007.91
2023-01-10T18:49:01.754Z,100016.72
2023-01-10T18:51:30.383Z,100007.88
2023-01-10T18:53:57.719Z,100011.28
2023-01-10T18:56:25.259Z,100012.19
2023-01-10T18:58:53.790Z,100006.97
2023-01-10T19:01:22.497Z,100017.59
2023-01-10T19:03:52.541Z,100021.97
2023-01-10T19:06:23.010Z,100029.16
2023-01-10T19:08:51.952Z,100026.38
2023-01-10T19:11:20.090Z,100022.00
2023-01-10T19:13:50.563Z,100020.25
2023-01-10T19:16:22.072Z,100021.97
2023-01-10T19:18:54.394Z,100028.94
2023-01-10T19:21:23.454Z,100030.75
2023-01-10T19:23:56.022Z,100030.19
2023-01-10T19:26:24.710Z,100038.09
2023-01-10T19:28:53.105Z,100032.81
2023-01-10T19:31:26.428Z,100039.88
2023-01-10T19:33:57.477Z,100041.78
2023-01-10T19:36:25.646Z,100038.38
2023-01-10T19:38:58.533Z,100033.16
2023-01-10T19:41:30.067Z,100034.66
2023-01-10T19:44:03.281Z,100031.75
2023-01-10T19:46:37.209Z,100044.88
2023-01-10T19:49:18.486Z,100042.13
2023-01-10T19:51:56.299Z,100040.34
2023-01-10T19:54:25.053Z,100042.97
2023-01-10T19:56:52.831Z,100050.88
2023-01-10T19:59:20.512Z,100050.03
2023-01-10T20:01:48.455Z,100043.88
2023-01-10T20:04:16.453Z,100043.88
2023-01-10T20:06:44.645Z,100043.88
2023-01-10T20:09:15.916Z,100036.91
2023-01-10T20:11:46.385Z,100036.09
2023-01-10T20:14:20.485Z,100044.78
2023-01-10T20:16:49.464Z,100031.88
2023-01-10T20:19:18.086Z,100039.09
2023-01-10T20:21:46.154Z,100048.91
2023-01-10T20:24:20.632Z,100038.34
2023-01-10T20:26:52.207Z,100039.25
2023-01-10T20:29:21.320Z,100052.44
2023-01-10T20:31:54.444Z,100054.22
2023-01-10T20:34:23.247Z,100053.88
2023-01-10T20:36:52.939Z,100059.13
2023-01-10T20:39:23.737Z,100060.09
2023-01-10T20:41:52.217Z,100063.72
2023-01-10T20:44:20.420Z,100058.50
2023-01-10T20:46:48.128Z,100066.41
2023-01-10T20:49:15.629Z,100052.16
2023-01-10T20:51:43.165Z,100057.22
2023-01-10T20:54:11.113Z,100069.47
2023-01-10T20:56:39.262Z,100060.06
2023-01-10T20:59:07.746Z,100064.53
2023-01-10T21:01:35.977Z,100074.34
2023-01-10T21:04:06.984Z,100070.00
2023-01-10T21:06:35.752Z,100063.94
2023-01-10T21:09:04.422Z,100071.88
2023-01-10T21:11:32.456Z,100077.91
2023-01-10T21:14:00.591Z,100070.09
2023-01-10T21:16:28.354Z,100075.28
2023-01-10T21:18:55.525Z,100076.91
2023-01-10T21:21:23.276Z,100071.63
2023-01-10T21:23:54.769Z,100076.97
2023-01-10T21:26:23.423Z,100074.34
2023-01-10T21:28:52.102Z,100075.94
2023-01-10T21:31:25.084Z,100060.91
2023-01-10T21:33:54.449Z,100068.09
2023-01-10T21:36:22.056Z,100060.84
2023-01-10T21:38:49.843Z,100057.69
2023-01-10T21:41:38.846Z,100064.88
2023-01-10T21:44:07.699Z,100059.63
2023-01-10T21:46:35.035Z,100063.13
2023-01-10T21:49:02.768Z,100065.78
2023-01-10T21:51:30.404Z,100068.34
2023-01-10T21:53:59.396Z,100075.34
2023-01-10T21:56:26.815Z,100065.81
2023-01-10T21:58:54.311Z,100063.97
2023-01-10T22:01:22.857Z,100065.50
2023-01-10T22:03:51.270Z,100082.28
2023-01-10T22:06:18.865Z,100074.41
2023-01-10T22:08:46.295Z,100077.97
2023-01-10T22:11:13.536Z,100081.53
2023-01-10T22:13:41.021Z,100078.94
2023-01-10T22:16:08.618Z,100071.97
2023-01-10T22:18:35.959Z,100078.09
2023-01-10T22:21:03.701Z,100071.91
2023-01-10T22:23:37.008Z,100065.63
2023-01-10T22:26:05.960Z,100074.28
2023-01-10T22:28:35.619Z,100074.25
2023-01-10T22:31:05.681Z,100063.22
2023-01-10T22:33:37.047Z,100065.06
2023-01-10T22:36:13.610Z,100055.50
2023-01-10T22:38:41.948Z,100056.31
2023-01-10T22:41:13.905Z,100061.34
2023-01-10T22:43:42.150Z,100063.97
2023-01-10T22:46:10.017Z,100066.66
2023-01-10T22:48:38.620Z,100073.88
2023-01-10T22:51:06.346Z,100078.16
2023-01-10T22:53:34.263Z,100066.06
2023-01-10T22:56:03.298Z,100064.31
2023-01-10T22:58:31.622Z,100063.53
2023-01-10T23:03:44.956Z,100066.28
2023-01-10T23:06:13.333Z,100063.66
2023-01-10T23:08:42.359Z,100062.72
2023-01-10T23:11:13.256Z,100071.50
2023-01-10T23:13:41.222Z,100060.97
2023-01-10T23:16:28.913Z,100063.53
2023-01-10T23:18:57.855Z,100061.69
2023-01-10T23:21:29.603Z,100059.91
2023-01-10T23:23:57.176Z,100068.81
2023-01-10T23:26:24.426Z,100070.56
2023-01-10T23:28:52.588Z,100072.25
2023-01-10T23:31:23.578Z,100070.47
2023-01-10T23:33:51.495Z,100077.41
2023-01-10T23:36:19.983Z,100075.59
2023-01-10T23:38:47.760Z,100072.28
2023-01-10T23:41:15.165Z,100062.72
2023-01-10T23:43:42.925Z,100068.84
2023-01-10T23:46:11.683Z,100060.94
2023-01-10T23:48:39.293Z,100064.28
2023-01-10T23:51:08.091Z,100059.91
2023-01-10T23:53:35.675Z,100060.91
2023-01-10T23:56:21.149Z,100063.53
2023-01-10T23:58:52.963Z,100063.41
